createdAt,value
2022-09-05T00:03:17.257Z,8.26
2022-09-05T00:06:27.715Z,8.21
2022-09-05T00:09:44.217Z,8.21
2022-09-05T00:12:50.768Z,8.20
2022-09-05T00:16:22.427Z,8.19
2022-09-05T00:24:30.905Z,8.19
2022-09-05T00:24:35.901Z,8.20
2022-09-05T00:27:02.555Z,8.17
2022-09-05T00:31:07.556Z,8.13
2022-09-05T00:33:48.257Z,8.08
2022-09-05T00:37:08.244Z,8.05
2022-09-05T00:40:25.522Z,8.07
2022-09-05T00:43:34.608Z,8.07
2022-09-05T00:46:46.919Z,8.01
2022-09-05T00:50:07.707Z,7.98
2022-09-05T00:53:22.844Z,8.00
2022-09-05T00:57:00.994Z,8.01
2022-09-05T01:00:33.795Z,8.01
2022-09-05T01:04:05.759Z,8.02
2022-09-05T01:08:01.781Z,7.99
2022-09-05T01:11:21.360Z,7.96
2022-09-05T01:14:50.367Z,7.96
2022-09-05T01:18:26.433Z,7.96
2022-09-05T01:21:48.495Z,7.98
2022-09-05T01:25:32.801Z,7.98
2022-09-05T01:29:24.754Z,7.93
2022-09-05T01:33:05.821Z,7.84
2022-09-05T01:36:34.430Z,7.76
2022-09-05T01:40:24.573Z,7.77
2022-09-05T01:43:45.112Z,7.76
2022-09-05T01:46:55.860Z,7.76
2022-09-05T01:50:12.800Z,7.77
2022-09-05T01:53:41.117Z,7.77
2022-09-05T01:56:55.459Z,7.78
2022-09-05T02:00:56.161Z,7.78
2022-09-05T02:04:43.106Z,7.78
2022-09-05T02:08:30.642Z,7.76
2022-09-05T02:12:13.446Z,7.75
2022-09-05T02:15:27.554Z,7.74
2022-09-05T02:19:01.349Z,7.73
2022-09-05T02:22:30.009Z,7.74
2022-09-05T02:26:03.686Z,7.73
2022-09-05T02:29:37.031Z,7.74
2022-09-05T02:33:00.796Z,7.75
2022-09-05T02:36:18.255Z,7.73
2022-09-05T02:45:09.015Z,7.72
2022-09-05T02:45:15.038Z,7.67
2022-09-05T02:47:07.148Z,7.63
2022-09-05T02:54:05.772Z,7.59
2022-09-05T02:57:32.897Z,7.58
2022-09-05T02:58:06.431Z,7.54
2022-09-05T03:01:01.379Z,7.50
2022-09-05T03:04:14.301Z,7.53
2022-09-05T03:08:05.425Z,7.55
2022-09-05T03:11:42.176Z,7.55
2022-09-05T03:15:42.540Z,7.61
2022-09-05T03:19:46.165Z,7.67
2022-09-05T03:23:13.597Z,7.75
2022-09-05T03:26:58.586Z,7.87
2022-09-05T03:30:34.529Z,7.97
2022-09-05T03:33:56.193Z,8.07
2022-09-05T03:37:37.974Z,8.14
2022-09-05T03:40:57.863Z,8.23
2022-09-05T03:44:36.476Z,8.31
2022-09-05T03:48:29.261Z,8.39
2022-09-05T03:57:10.994Z,8.45
2022-09-05T03:57:17.489Z,8.52
2022-09-05T03:58:57.211Z,8.58
2022-09-05T04:03:21.553Z,8.65
2022-09-05T04:08:14.239Z,8.73
2022-09-05T04:09:43.467Z,8.80
2022-09-05T04:12:50.378Z,8.87
2022-09-05T04:16:03.916Z,8.95
2022-09-05T04:19:33.121Z,9.03
2022-09-05T04:22:53.203Z,9.12
2022-09-05T04:26:43.509Z,9.20
2022-09-05T04:30:39.095Z,9.27
2022-09-05T04:33:47.128Z,9.35
2022-09-05T04:36:53.303Z,9.41
2022-09-05T04:39:59.690Z,9.49
2022-09-05T04:43:05.725Z,9.57
2022-09-05T04:46:31.551Z,9.63
2022-09-05T04:50:12.678Z,9.69
2022-09-05T04:53:44.778Z,9.74
2022-09-05T04:56:53.831Z,9.79
2022-09-05T05:05:59.244Z,9.83
2022-09-05T05:06:01.955Z,9.88
2022-09-05T05:06:54.946Z,9.91
2022-09-05T05:12:37.815Z,9.98
2022-09-05T05:17:58.202Z,10.05
2022-09-05T05:18:06.381Z,10.13
2022-09-05T05:20:39.774Z,10.23
2022-09-05T05:23:25.593Z,10.31
2022-09-05T05:26:43.767Z,10.39
2022-09-05T05:30:08.611Z,10.47
2022-09-05T05:33:15.960Z,10.53
2022-09-05T05:36:22.923Z,10.62
2022-09-05T05:39:34.084Z,10.70
2022-09-05T05:42:40.387Z,10.78
2022-09-05T05:45:48.662Z,10.87
2022-09-05T05:48:57.515Z,10.93
2022-09-05T05:52:14.792Z,10.99
2022-09-05T05:55:51.222Z,11.06
2022-09-05T05:59:16.098Z,11.11
2022-09-05T06:02:41.143Z,11.18
2022-09-05T06:06:22.955Z,11.30
2022-09-05T06:14:55.002Z,11.43
2022-09-05T06:14:57.362Z,11.59
2022-09-05T06:17:27.908Z,11.75
2022-09-05T06:22:08.367Z,11.91
2022-09-05T06:24:47.755Z,12.07
2022-09-05T06:28:26.167Z,12.27
2022-09-05T06:31:57.142Z,12.52
2022-09-05T06:39:47.947Z,12.99
2022-09-05T06:43:17.992Z,13.31
2022-09-05T06:47:22.113Z,13.62
2022-09-05T06:51:07.766Z,13.91
2022-09-05T06:54:14.064Z,14.26
2022-09-05T06:57:43.907Z,14.68
2022-09-05T07:01:03.890Z,15.07
2022-09-05T07:05:23.950Z,15.42
2022-09-05T07:07:55.264Z,15.69
2022-09-05T07:11:24.293Z,15.90
2022-09-05T07:14:47.343Z,16.08
2022-09-05T07:18:11.238Z,16.24
2022-09-05T07:25:04.120Z,16.61
2022-09-05T07:28:28.924Z,16.95
2022-09-05T07:31:38.099Z,17.29
2022-09-05T07:34:52.649Z,17.60
2022-09-05T07:38:02.012Z,17.78
2022-09-05T07:41:16.269Z,17.93
2022-09-05T07:44:29.528Z,18.03
2022-09-05T07:47:59.573Z,18.15
2022-09-05T07:56:49.624Z,18.25
2022-09-05T07:57:04.127Z,18.34
2022-09-05T07:57:50.996Z,18.39
2022-09-05T08:01:07.180Z,18.44
2022-09-05T08:04:20.690Z,18.48
2022-09-05T08:07:51.920Z,18.52
2022-09-05T08:11:25.628Z,18.58
2022-09-05T08:14:44.517Z,18.70
2022-09-05T08:17:41.746Z,18.79
2022-09-05T08:20:56.506Z,18.91
2022-09-05T08:24:20.697Z,19.04
2022-09-05T08:27:41.594Z,19.21
2022-09-05T08:31:02.324Z,19.42
2022-09-05T08:34:12.354Z,19.57
2022-09-05T08:37:21.886Z,19.76
2022-09-05T08:40:54.631Z,19.88
2022-09-05T08:46:43.268Z,20.02
2022-09-05T08:47:58.446Z,20.12
2022-09-05T08:51:54.378Z,20.13
2022-09-05T08:55:23.508Z,20.22
2022-09-05T08:59:32.048Z,20.25
2022-09-05T09:02:49.226Z,20.33
2022-09-05T09:06:28.555Z,20.24
2022-09-05T09:09:48.474Z,20.21
2022-09-05T09:13:19.745Z,20.16
2022-09-05T09:16:52.443Z,20.20
2022-09-05T09:20:33.706Z,20.28
2022-09-05T09:24:05.730Z,20.40
2022-09-05T09:27:53.955Z,20.27
2022-09-05T09:30:36.271Z,20.19
2022-09-05T09:33:55.894Z,20.06
2022-09-05T09:37:20.150Z,19.92
2022-09-05T09:40:52.419Z,19.79
2022-09-05T09:44:43.534Z,19.67
2022-09-05T09:48:10.492Z,19.50
2022-09-05T09:51:52.122Z,19.30
2022-09-05T09:55:55.466Z,19.00
2022-09-05T09:59:54.723Z,18.74
2022-09-05T10:06:54.086Z,18.54
2022-09-05T10:10:57.642Z,18.50
2022-09-05T10:15:31.088Z,18.48
2022-09-05T10:18:54.223Z,18.48
2022-09-05T10:25:31.076Z,18.36
2022-09-05T10:29:37.396Z,18.37
2022-09-05T10:35:07.807Z,18.43
2022-09-05T10:36:38.953Z,18.46
2022-09-05T10:39:54.269Z,18.53
2022-09-05T10:43:09.547Z,18.72
2022-09-05T10:46:50.709Z,18.96
2022-09-05T10:49:49.381Z,19.19
2022-09-05T10:53:07.060Z,19.38
2022-09-05T10:56:28.535Z,19.50
2022-09-05T11:02:15.798Z,19.61
2022-09-05T11:02:58.703Z,19.79
2022-09-05T11:06:14.086Z,20.00
2022-09-05T11:09:39.907Z,20.20
2022-09-05T11:13:28.063Z,20.43
2022-09-05T11:17:00.211Z,20.66
2022-09-05T11:20:41.705Z,20.96
2022-09-05T11:23:58.597Z,21.18
2022-09-05T11:27:24.465Z,21.41
2022-09-05T11:30:38.884Z,21.63
2022-09-05T11:39:58.554Z,21.68
2022-09-05T11:39:59.042Z,21.70
2022-09-05T11:42:01.783Z,21.42
2022-09-05T11:45:34.432Z,21.17
2022-09-05T11:49:07.161Z,20.97
2022-09-05T11:52:47.932Z,20.82
2022-09-05T11:56:25.491Z,20.78
2022-09-05T11:59:49.759Z,20.73
2022-09-05T12:03:57.198Z,20.73
2022-09-05T12:07:31.724Z,20.77
2022-09-05T12:10:47.595Z,20.89
2022-09-05T12:14:25.712Z,20.90
2022-09-05T12:17:53.906Z,20.91
2022-09-05T12:21:19.592Z,20.86
2022-09-05T12:25:25.954Z,20.83
2022-09-05T12:27:47.083Z,20.71
2022-09-05T12:36:06.118Z,20.56
2022-09-05T12:39:50.047Z,20.52
2022-09-05T12:41:38.267Z,20.49
2022-09-05T12:42:09.615Z,20.62
2022-09-05T12:44:34.642Z,20.45
2022-09-05T12:47:23.066Z,20.32
2022-09-05T12:50:30.546Z,20.16
2022-09-05T12:53:40.254Z,19.97
2022-09-05T13:01:31.942Z,19.83
2022-09-05T13:03:13.135Z,19.49
2022-09-05T13:03:27.836Z,18.22
2022-09-05T13:06:34.952Z,16.88
2022-09-05T13:11:10.064Z,15.82
2022-09-05T13:15:01.708Z,15.07
2022-09-05T13:16:27.043Z,14.62
2022-09-05T13:19:57.361Z,14.38
2022-09-05T13:23:05.196Z,14.27
2022-09-05T13:26:41.472Z,14.20
2022-09-05T13:30:51.895Z,14.15
2022-09-05T13:38:10.165Z,14.15
2022-09-05T13:38:29.225Z,14.13
2022-09-05T13:39:34.986Z,14.19
2022-09-05T13:42:49.848Z,14.24
2022-09-05T13:46:25.655Z,14.31
2022-09-05T13:49:45.209Z,14.42
2022-09-05T13:52:58.973Z,14.53
2022-09-05T13:56:07.693Z,14.68
2022-09-05T13:59:24.142Z,14.89
2022-09-05T14:03:38.871Z,15.07
2022-09-05T14:07:43.933Z,15.19
2022-09-05T14:10:52.883Z,15.43
2022-09-05T14:17:53.318Z,15.88
2022-09-05T14:21:10.974Z,16.00
2022-09-05T14:24:37.327Z,16.09
2022-09-05T14:27:45.797Z,16.21
2022-09-05T14:35:47.045Z,16.30
2022-09-05T14:37:41.622Z,16.32
2022-09-05T14:38:31.546Z,16.40
2022-09-05T14:42:18.185Z,16.50
2022-09-05T14:45:52.949Z,16.63
2022-09-05T14:49:25.739Z,16.70
2022-09-05T14:52:46.867Z,16.76
2022-09-05T14:56:06.222Z,16.76
2022-09-05T15:02:44.771Z,16.72
2022-09-05T15:02:56.671Z,16.67
2022-09-05T15:05:35.723Z,16.62
2022-09-05T15:11:24.216Z,16.54
2022-09-05T15:12:23.111Z,16.47
2022-09-05T15:15:25.864Z,16.42
2022-09-05T15:18:48.267Z,16.35
2022-09-05T15:21:54.506Z,16.23
2022-09-05T15:25:18.217Z,16.09
2022-09-05T15:28:24.919Z,15.97
2022-09-05T15:31:37.868Z,15.82
2022-09-05T15:34:48.528Z,15.68
2022-09-05T15:37:56.803Z,15.54
2022-09-05T15:41:26.420Z,15.43
2022-09-05T15:45:06.292Z,15.29
2022-09-05T15:47:52.908Z,15.19
2022-09-05T15:51:04.190Z,15.15
2022-09-05T15:54:11.232Z,15.08
2022-09-05T15:57:22.855Z,15.03
2022-09-05T16:00:57.384Z,14.99
2022-09-05T16:08:56.838Z,14.99
2022-09-05T16:10:29.649Z,14.95
2022-09-05T16:10:50.724Z,14.92
2022-09-05T16:13:53.311Z,14.93
2022-09-05T16:23:29.888Z,14.91
2022-09-05T16:23:48.807Z,14.84
2022-09-05T16:26:44.622Z,14.81
2022-09-05T16:29:59.486Z,14.75
2022-09-05T16:33:08.600Z,14.70
2022-09-05T16:36:27.459Z,14.65
2022-09-05T16:39:39.358Z,14.57
2022-09-05T16:43:04.184Z,14.45
2022-09-05T16:46:34.418Z,14.36
2022-09-05T16:49:45.401Z,14.26
2022-09-05T16:53:02.614Z,14.18
2022-09-05T16:56:15.125Z,14.07
2022-09-05T16:59:34.154Z,13.96
2022-09-05T17:02:52.929Z,13.83
2022-09-05T17:06:03.036Z,13.70
2022-09-05T17:09:12.711Z,13.57
2022-09-05T17:12:25.818Z,13.50
2022-09-05T17:15:34.734Z,13.44
2022-09-05T17:18:49.303Z,13.41
2022-09-05T17:24:49.380Z,13.37
2022-09-05T17:29:30.886Z,13.26
2022-09-05T17:29:50.493Z,13.32
2022-09-05T17:32:14.462Z,13.19
2022-09-05T17:36:14.548Z,13.10
2022-09-05T17:39:54.410Z,13.01
2022-09-05T17:43:18.632Z,12.86
2022-09-05T17:46:46.745Z,12.74
2022-09-05T17:50:02.075Z,12.64
2022-09-05T17:53:26.602Z,12.54
2022-09-05T17:56:52.925Z,12.43
2022-09-05T17:59:58.977Z,12.34
2022-09-05T18:03:10.420Z,12.20
2022-09-05T18:06:22.055Z,12.11
2022-09-05T18:10:11.936Z,12.01
2022-09-05T18:13:31.439Z,11.93
2022-09-05T18:16:20.838Z,11.86
2022-09-05T18:19:35.774Z,11.79
2022-09-05T18:22:56.959Z,11.69
2022-09-05T18:26:14.808Z,11.61
2022-09-05T18:29:57.974Z,11.56
2022-09-05T18:33:55.298Z,11.53
2022-09-05T18:36:14.287Z,11.46
2022-09-05T18:39:43.451Z,11.40
2022-09-05T18:42:52.759Z,11.39
2022-09-05T18:46:08.215Z,11.41
2022-09-05T18:50:22.028Z,11.42
2022-09-05T18:52:40.583Z,11.43
2022-09-05T18:56:12.327Z,11.42
2022-09-05T18:59:12.644Z,11.35
2022-09-05T19:02:50.455Z,11.33
2022-09-05T19:06:35.090Z,11.30
2022-09-05T19:09:26.617Z,11.27
2022-09-05T19:12:32.430Z,11.21
2022-09-05T19:15:40.343Z,11.16
2022-09-05T19:18:49.516Z,11.12
2022-09-05T19:23:08.568Z,11.07
2022-09-05T19:25:17.926Z,11.00
2022-09-05T19:36:46.779Z,10.92
2022-09-05T19:36:57.057Z,10.76
2022-09-05T19:37:14.272Z,10.84
2022-09-05T19:38:15.335Z,10.70
2022-09-05T19:46:27.513Z,10.67
2022-09-05T19:47:52.055Z,10.67
2022-09-05T19:48:07.402Z,10.66
2022-09-05T19:51:02.950Z,10.69
2022-09-05T19:54:11.750Z,10.73
2022-09-05T19:57:31.007Z,10.77
2022-09-05T20:00:38.209Z,10.84
2022-09-05T20:03:46.972Z,10.86
2022-09-05T20:06:53.231Z,10.91
2022-09-05T20:10:00.734Z,10.96
2022-09-05T20:13:08.474Z,11.02
2022-09-05T20:16:16.205Z,11.04
2022-09-05T20:19:23.815Z,11.09
2022-09-05T20:22:47.230Z,11.10
2022-09-05T20:25:55.487Z,11.12
2022-09-05T20:29:02.677Z,11.13
2022-09-05T20:32:10.115Z,11.16
2022-09-05T20:37:18.465Z,11.17
2022-09-05T20:43:18.146Z,11.18
2022-09-05T20:43:23.464Z,11.17
2022-09-05T20:45:02.481Z,11.18
2022-09-05T20:54:04.573Z,11.19
2022-09-05T20:54:19.062Z,11.24
2022-09-05T20:54:34.694Z,11.29
2022-09-05T20:57:35.831Z,11.33
2022-09-05T21:00:41.953Z,11.38
2022-09-05T21:03:53.746Z,11.41
2022-09-05T21:06:59.301Z,11.45
2022-09-05T21:10:13.617Z,11.46
2022-09-05T21:13:19.237Z,11.47
2022-09-05T21:16:33.350Z,11.46
2022-09-05T21:19:50.091Z,11.46
2022-09-05T21:22:58.213Z,11.47
2022-09-05T21:26:11.754Z,11.49
2022-09-05T21:29:33.613Z,11.51
2022-09-05T21:32:41.858Z,11.52
2022-09-05T21:35:55.748Z,11.53
2022-09-05T21:39:00.829Z,11.56
2022-09-05T21:45:41.082Z,11.59
2022-09-05T21:47:46.596Z,11.62
2022-09-05T21:48:27.034Z,11.65
2022-09-05T21:51:35.160Z,11.65
2022-09-05T21:54:40.850Z,11.69
2022-09-05T21:59:27.446Z,11.69
2022-09-05T22:00:58.424Z,11.69
2022-09-05T22:04:05.314Z,11.72
2022-09-05T22:07:11.879Z,11.73
2022-09-05T22:10:18.563Z,11.72
2022-09-05T22:13:25.120Z,11.71
2022-09-05T22:16:32.578Z,11.72
2022-09-05T22:19:41.131Z,11.73
2022-09-05T22:22:56.041Z,11.74
2022-09-05T22:25:55.305Z,11.76
2022-09-05T22:29:01.490Z,11.77
2022-09-05T22:32:09.479Z,11.77
2022-09-05T22:35:28.418Z,11.78
2022-09-05T22:38:25.512Z,11.79
2022-09-05T22:41:31.282Z,11.80
2022-09-05T22:44:37.866Z,11.78
2022-09-05T22:47:44.492Z,11.76
2022-09-05T22:50:49.739Z,11.76
2022-09-05T22:53:55.637Z,11.74
2022-09-05T22:57:02.434Z,11.72
2022-09-05T23:00:10.911Z,11.69
2022-09-05T23:03:18.757Z,11.68
2022-09-05T23:06:25.247Z,11.67
2022-09-05T23:09:32.548Z,11.68
2022-09-05T23:12:38.237Z,11.68
2022-09-05T23:15:44.202Z,11.68
2022-09-05T23:18:50.167Z,11.68
2022-09-05T23:21:56.210Z,11.70
2022-09-05T23:25:03.509Z,11.68
2022-09-05T23:28:08.880Z,11.66
2022-09-05T23:31:15.526Z,11.63
2022-09-05T23:34:21.803Z,11.62
2022-09-05T23:37:28.271Z,11.59
2022-09-05T23:40:34.367Z,11.58
2022-09-05T23:43:41.600Z,11.57
2022-09-05T23:46:49.208Z,11.57
2022-09-05T23:49:55.986Z,11.54
2022-09-05T23:53:02.500Z,11.55
2022-09-05T23:56:00.585Z,11.55
2022-09-05T23:59:06.668Z,11.53
